x

9440910 - Toke Point, Wa (tokw1) Weather Station

5:00 - Wed 24th May 2017 All times are PDT. -7 hours from GMT.

  • Wind
    15mph, 22mph gusts
  • Sea Temp 57°f
  • Luft Temp 54°f
  • Sea Pressure 1016.4mb
  • 9440910 - Toke Point, Wa
  • 9440910 - Toke Point, Wa

More Historic Weather Station data

Upgrade to MSW Pro to gain access to the past 30 days of data for over 8000 Wavebouys and Weather Stations around the globe.

Join Pro

Comparision Forecast

View Surf forecast
   
Mi 05/24 5:00 15 22 mph 1016.4mb 57f 54f
4:54 15 20 mph 1016.5mb 57f 54f
4:48 16 21 mph 1016.4mb 57f 54f
4:42 20 23 mph 1016.5mb 57f 54f
4:36 17 25 mph 1016.5mb 57f 54f
4:30 21 25 mph - - -
4:24 17 23 mph 1016.7mb 57f 54f
4:18 20 23 mph 1016.7mb 57f 54f
4:12 20 23 mph 1016.8mb 57f 54f
4:06 23 26 mph 1016.8mb 57f 53f
4:00 20 23 mph 1016.9mb 57f 54f
3:54 20 23 mph 1016.9mb 57f 54f
3:48 20 23 mph 1016.9mb 56f 54f
3:42 18 24 mph 1016.9mb 57f 54f
3:36 18 22 mph 1017mb 56f 54f
3:30 17 22 mph 1017mb 56f 54f
3:24 15 22 mph 1017mb 56f 54f
3:18 17 23 mph - - -
3:12 16 22 mph 1017.2mb 56f 54f
3:06 14 20 mph 1017.2mb 56f 54f
3:00 14 17 mph 1017.3mb 55f 53f
2:48 20 24 mph 1017.4mb 55f 53f
2:42 16 23 mph 1017.5mb 54f 53f
2:36 14 21 mph 1017.7mb 54f 53f
2:30 11 16 mph 1017.8mb 55f 53f
2:24 13 16 mph 1017.9mb 54f 53f
2:18 13 17 mph 1018mb 54f 53f
2:12 14 16 mph 1018mb 54f 53f
2:06 14 17 mph 1018.2mb 55f 52f
2:00 17 22 mph 1018.2mb 54f 52f
1:54 20 23 mph 1018.2mb 54f 53f
1:48 16 23 mph 1018.2mb 54f 54f
1:42 18 23 mph 1018.1mb 54f 54f
1:36 18 24 mph 1018.2mb 54f 55f
1:30 20 23 mph 1018.3mb 54f 54f
1:24 14 20 mph 1018.3mb 54f 54f
1:18 18 24 mph 1018.3mb 54f 54f
1:12 18 24 mph 1018.3mb 54f 53f
1:06 15 20 mph 1018.4mb 54f 54f
1:00 16 28 mph 1018.3mb 54f 53f
12:54 20 23 mph 1018.3mb 54f 54f
12:48 14 21 mph 1018.5mb 54f 53f
12:42 17 23 mph 1018.6mb 54f 53f
12:36 16 21 mph 1018.5mb 54f 53f
12:30 18 22 mph 1018.5mb 54f 53f
12:24 17 25 mph 1018.6mb 54f 53f
12:18 18 22 mph 1018.7mb 54f 53f
12:12 14 17 mph 1018.6mb 54f 54f
12:06 15 20 mph 1018.7mb 54f 54f
12:00 11 14 mph 1018.8mb 55f 54f
11:54 14 20 mph 1018.8mb 55f 54f
11:48 16 20 mph 1018.9mb 55f 54f
11:42 15 20 mph 1018.9mb 55f 54f
11:36 17 23 mph 1018.9mb 55f 54f
11:30 16 25 mph 1018.9mb 55f 54f
11:24 22 29 mph 1018.9mb 55f 54f
11:18 14 25 mph 1019mb 55f 53f
11:12 17 23 mph 1019mb 55f 53f
11:06 20 24 mph 1019mb 56f 53f
11:00 21 23 mph 1019mb 56f 53f
10:54 16 23 mph 1019.1mb 56f 54f
10:48 17 22 mph 1019.1mb 56f 54f
10:42 14 20 mph 1019.1mb 56f 54f
10:36 14 21 mph 1019.3mb 56f 54f
10:30 15 22 mph 1019.3mb 56f 54f
10:24 20 23 mph 1019.4mb 56f 54f
10:18 18 21 mph 1019.4mb 56f 54f
10:12 14 22 mph 1019.5mb 56f 54f
10:06 18 22 mph 1019.5mb 56f 53f
10:00 16 20 mph 1019.5mb 56f 53f
9:54 17 23 mph 1019.5mb 56f 54f
9:48 16 23 mph 1019.6mb 57f 54f
9:42 13 17 mph 1019.6mb 56f 53f
9:36 9 14 mph 1019.7mb 56f 53f
9:30 14 20 mph 1019.7mb 57f 53f
9:24 11 16 mph 1019.7mb 57f 53f
9:18 14 20 mph 1019.8mb 57f 53f
9:12 14 17 mph 1019.8mb 57f 53f
9:06 10 18 mph 1019.8mb 57f 53f
9:00 16 21 mph 1019.7mb 57f 53f
8:54 13 16 mph 1019.8mb 57f 53f
8:48 11 16 mph 1019.8mb 57f 52f
8:42 9 15 mph 1019.8mb 57f 52f
8:36 10 11 mph 1019.8mb 57f 52f
8:30 9 10 mph 1019.8mb 57f 52f
8:24 9 11 mph 1019.8mb 56f 52f
8:18 9 13 mph 1019.9mb 57f 51f
8:12 8 11 mph 1019.9mb 58f 51f
8:06 10 13 mph 1019.9mb 57f 51f
8:00 9 13 mph 1019.9mb 57f 51f
7:54 10 13 mph 1019.9mb 57f 51f
7:48 9 17 mph 1019.9mb 58f 51f
7:42 9 13 mph 1019.8mb 56f 50f
7:36 13 15 mph 1019.9mb 57f 50f
7:30 13 15 mph 1019.9mb 56f 50f
7:24 11 16 mph 1019.9mb 56f 51f
7:18 11 16 mph 1019.8mb 57f 51f
7:12 10 14 mph 1019.7mb 56f 51f
7:06 10 15 mph 1019.7mb 56f 51f
7:00 11 15 mph 1019.8mb 56f 51f
6:54 14 16 mph 1019.8mb 55f 50f
6:48 13 18 mph 1019.7mb 56f 50f
6:42 21 23 mph 1019.6mb 55f 50f
6:36 11 15 mph 1019.7mb 56f 51f
6:30 10 13 mph 1019.6mb 55f 51f
6:24 10 14 mph 1019.6mb 55f 51f
6:18 7 10 mph 1019.7mb 55f 51f
6:12 10 13 mph 1019.7mb 55f 51f
6:06 10 15 mph 1019.7mb 55f 51f
6:00 10 14 mph 1019.8mb 55f 51f
5:54 11 16 mph 1019.8mb 55f 51f
5:48 11 14 mph 1019.8mb 55f 51f
5:42 11 17 mph 1019.8mb 55f 50f
5:36 14 16 mph 1019.8mb 55f 50f
5:30 13 16 mph 1019.8mb 55f 51f
5:24 14 17 mph 1019.8mb 55f 51f
5:18 15 20 mph 1019.8mb 55f 51f
5:12 15 20 mph 1019.7mb 55f 51f
5:06 14 16 mph 1019.8mb 55f 51f
5:00 10 18 mph 1019.8mb 55f 51f
4:54 15 20 mph 1019.8mb 55f 51f
4:48 10 16 mph 1019.9mb 55f 50f
4:42 9 15 mph 1019.9mb 55f 50f
4:36 10 15 mph 1019.9mb 55f 50f
4:30 11 14 mph 1020mb 55f 50f
4:24 10 14 mph 1020mb 55f 51f
4:18 10 15 mph 1020.2mb 55f 51f
4:12 9 14 mph 1020.2mb 55f 51f
4:06 14 15 mph 1020.2mb 55f 51f
4:00 8 14 mph 1020.3mb 56f 51f
3:54 11 20 mph 1020.4mb 56f 51f
3:48 14 17 mph 1020.3mb 56f 51f
3:42 13 17 mph 1020.4mb 56f 51f
3:36 13 18 mph 1020.3mb 56f 51f
3:30 11 17 mph 1020.3mb 56f 51f
3:24 11 17 mph 1020.4mb 56f 51f
3:18 13 16 mph 1020.4mb 56f 51f
3:12 14 20 mph 1020.4mb 56f 51f
3:06 14 20 mph 1020.5mb 56f 51f
3:00 13 16 mph 1020.5mb 56f 51f
2:54 13 17 mph 1020.6mb 56f 51f
2:48 11 15 mph 1020.6mb 56f 51f
2:42 11 16 mph 1020.6mb 55f 51f
2:36 13 18 mph 1020.7mb 56f 51f
2:30 14 21 mph 1020.7mb 56f 51f
2:24 16 21 mph 1020.8mb 56f 51f
2:18 11 22 mph 1020.9mb 55f 51f
2:12 13 15 mph 1020.9mb 55f 51f
2:06 10 16 mph 1020.9mb 55f 51f
2:00 9 15 mph 1020.9mb 55f 51f
1:54 8 15 mph 1020.9mb 56f 51f
1:48 9 13 mph 1021mb 55f 51f
1:42 13 16 mph 1021.1mb 55f 51f
1:36 11 14 mph 1021.1mb 55f 51f
1:30 10 15 mph 1021.1mb 55f 51f
1:24 10 17 mph 1021.1mb 55f 51f
1:18 14 18 mph 1021.1mb 55f 51f
1:12 13 16 mph 1021.2mb 54f 51f
1:06 13 18 mph 1021.1mb 54f 51f
1:00 14 21 mph 1021mb 54f 51f
12:54 15 17 mph 1021mb 54f 51f
12:48 14 20 mph 1021.1mb 54f 51f
12:42 14 20 mph 1021mb 54f 51f
12:36 11 15 mph 1021.1mb 54f 51f
12:30 13 17 mph 1021mb 54f 51f
12:24 14 20 mph 1021mb 54f 51f
12:18 17 22 mph 1021mb 54f 51f
12:12 15 18 mph 1021mb 54f 51f
12:06 18 23 mph 1021mb 54f 51f
12:00 17 22 mph 1021mb 54f 51f
Di 05/23 11:54 14 21 mph 1021.1mb 54f 51f
11:48 13 18 mph 1021.1mb - -
11:42 14 18 mph 1021.1mb - -
11:36 16 22 mph 1021.1mb - -
11:30 16 23 mph 1021.1mb 55f 51f
11:24 15 21 mph 1021.3mb 55f 51f
11:18 20 23 mph 1021.3mb 55f 51f
11:12 17 24 mph 1021.3mb 55f 51f
11:06 16 22 mph 1021.4mb 55f 51f
11:00 16 22 mph 1021.3mb 55f 51f
10:54 18 25 mph 1021.2mb 55f 51f
10:48 18 22 mph 1021.2mb 55f 51f
10:42 14 20 mph 1021.2mb 56f 51f
10:36 15 21 mph 1021.1mb 56f 51f
10:30 16 25 mph 1021.1mb 56f 51f
10:24 15 23 mph 1021.1mb 56f 51f
10:18 18 24 mph 1021mb 56f 51f
10:12 17 21 mph 1021mb 56f 51f
10:06 17 24 mph 1021mb 56f 51f
10:00 17 23 mph 1020.9mb 57f 51f
9:54 16 23 mph 1020.9mb 57f 51f
9:48 15 22 mph 1020.9mb 57f 52f
9:42 15 21 mph 1020.8mb 58f 51f
9:36 16 18 mph 1020.8mb 58f 52f
9:30 16 21 mph 1020.6mb 59f 52f
9:24 17 22 mph 1020.6mb 59f 52f
9:18 15 20 mph 1020.5mb 59f 52f
9:12 18 21 mph 1020.4mb 59f 52f
9:06 18 24 mph 1020.3mb 60f 52f
9:00 20 25 mph 1020.3mb 60f 52f
8:54 18 24 mph 1020.3mb 60f 52f
8:48 15 22 mph 1020.3mb 60f 52f
8:42 18 23 mph 1020.2mb 60f 53f
8:36 17 23 mph 1020.2mb 60f 53f
8:30 21 24 mph 1020.1mb 60f 53f
8:24 16 24 mph 1020.2mb 60f 53f
8:18 16 21 mph 1020.2mb 61f 53f
8:12 15 25 mph 1020.2mb 61f 53f
8:06 18 24 mph 1020.2mb 61f 53f
8:00 20 25 mph 1020.2mb 61f 54f
7:54 18 25 mph 1020.2mb 60f 54f
7:48 18 24 mph 1020.2mb 60f 54f
7:42 16 24 mph 1020.2mb 61f 54f
7:36 21 29 mph 1020.2mb 61f 54f
7:30 18 31 mph 1020.2mb 61f 54f
7:24 21 31 mph 1020.2mb 61f 54f
7:18 21 28 mph 1020.1mb 61f 54f
7:12 20 28 mph 1020.2mb 62f 54f
7:06 22 31 mph 1020.1mb 61f 54f
7:00 24 33 mph 1020.1mb 61f 55f
6:48 15 31 mph 1020.2mb 62f 55f
6:42 21 34 mph 1020.3mb 62f 55f
6:36 22 29 mph 1020.3mb 61f 55f
6:30 28 31 mph 1020.2mb 62f 55f
6:24 24 31 mph 1020.2mb 62f 55f
6:18 26 38 mph 1020.1mb 62f 55f
6:12 25 32 mph 1020.1mb 62f 55f
6:06 25 33 mph 1020mb 62f 55f
6:00 28 34 mph 1020mb 62f 55f
5:54 22 29 mph 1020mb 61f 56f
5:48 24 31 mph 1019.9mb 61f 56f
5:42 17 26 mph 1019.9mb 61f 56f
5:36 18 26 mph 1019.9mb 61f 56f
5:30 18 26 mph 1019.9mb 61f 55f
5:24 20 31 mph 1020mb 61f 55f
5:18 17 25 mph 1020.1mb 61f 55f
5:12 23 29 mph 1020.1mb 61f 55f
5:06 23 30 mph 1020.1mb 61f 55f
5:00 20 29 mph 1020.1mb 61f 55f
4:54 22 31 mph 1020mb 61f 55f
4:48 22 29 mph - - -
4:42 22 31 mph 1020.1mb 61f 55f
4:36 24 33 mph 1020.1mb 61f 56f
4:30 23 30 mph 1020.2mb 61f 56f
4:24 25 31 mph 1020.2mb 61f 56f
4:18 22 29 mph 1020.3mb 61f 56f
4:12 22 32 mph 1020.3mb 61f 56f
4:06 28 32 mph 1020.3mb 61f 55f
4:00 26 33 mph 1020.4mb 61f 56f
3:54 16 25 mph 1020.5mb 61f 56f
3:48 17 29 mph 1020.5mb 61f 56f
3:42 20 28 mph 1020.6mb 61f 56f
3:36 21 29 mph 1020.5mb 61f 55f
3:30 18 23 mph 1020.6mb 61f 55f
3:24 16 23 mph 1020.6mb 61f 56f
3:18 20 25 mph 1020.6mb 61f 56f
3:12 21 25 mph 1020.6mb 60f 56f
3:06 22 28 mph 1020.6mb 60f 55f
3:00 20 24 mph 1020.6mb 60f 55f
2:54 20 28 mph 1020.7mb 58f 55f
2:48 22 26 mph 1020.5mb 60f 55f
2:42 22 29 mph 1020.5mb 60f 55f
2:36 17 23 mph 1020.4mb 59f 56f
2:30 21 24 mph 1020.3mb 59f 55f
2:24 17 22 mph 1020.3mb 59f 55f
2:18 21 26 mph 1020.3mb 58f 55f
2:12 17 23 mph 1020.3mb 58f 55f
2:06 23 26 mph 1020.2mb 59f 55f
2:00 18 25 mph 1020.2mb 58f 56f
1:54 21 28 mph 1020.2mb 56f 56f
1:48 21 25 mph 1020mb 55f 56f
1:42 17 23 mph 1020mb 55f 57f
1:36 18 24 mph 1020mb 55f 57f
1:30 16 20 mph 1019.9mb 55f 58f
1:24 15 20 mph 1019.9mb 55f 57f
1:18 16 21 mph 1019.9mb 55f 57f
1:12 21 24 mph 1019.8mb 55f 57f
1:06 14 21 mph 1019.9mb 55f 58f
1:00 16 21 mph 1019.8mb 55f 58f
12:54 17 20 mph 1019.9mb 55f 58f
12:48 13 15 mph 1019.9mb 55f 57f
12:42 10 17 mph 1020mb 55f 57f
12:36 17 23 mph 1020mb 55f 56f
12:30 14 18 mph 1020mb 55f 55f
12:24 17 24 mph 1020mb 55f 55f
12:18 20 25 mph 1020mb 55f 55f
12:12 18 26 mph 1020.1mb 55f 55f
12:06 17 24 mph 1020.1mb 55f 55f
12:00 20 25 mph 1020mb 55f 55f
11:54 16 23 mph 1020mb 55f 55f
11:48 14 20 mph 1020mb 55f 55f
11:42 18 26 mph 1020mb 55f 55f
11:36 20 26 mph 1019.9mb 55f 55f
11:30 20 24 mph 1019.9mb 56f 55f
11:24 11 18 mph 1019.8mb 56f 55f
11:18 15 20 mph 1019.7mb 56f 55f
11:12 15 22 mph 1019.7mb 56f 56f
11:06 20 23 mph 1019.5mb 57f 56f
11:00 16 20 mph 1019.4mb 57f 56f
10:54 15 17 mph 1019.4mb 57f 56f
10:48 7 15 mph 1019.3mb 57f 57f
10:42 8 14 mph 1019.3mb 57f 56f
10:36 14 20 mph 1019.3mb 57f 55f
10:30 16 20 mph 1019.3mb 58f 55f
10:24 17 22 mph 1019.2mb 58f 55f
10:18 18 23 mph 1019.1mb 58f 55f
10:12 21 24 mph 1019mb 58f 55f
10:06 20 23 mph 1019mb 58f 56f
10:00 17 23 mph 1018.9mb 58f 56f
9:54 13 15 mph 1018.9mb 58f 57f
9:48 8 11 mph 1018.9mb 58f 58f
9:42 8 10 mph 1018.9mb 58f 58f
9:36 7 14 mph 1018.9mb 59f 57f
9:30 11 16 mph 1018.9mb 59f 57f
9:24 14 17 mph 1018.7mb 59f 57f
9:18 14 16 mph 1018.7mb 59f 57f
9:12 13 15 mph 1018.8mb 59f 58f
9:06 14 17 mph 1018.7mb 59f 58f
9:00 15 17 mph 1018.7mb 59f 58f
8:54 13 17 mph 1018.7mb 59f 58f
8:48 15 22 mph 1018.7mb 59f 58f
8:42 13 21 mph 1018.8mb 59f 58f
8:36 18 23 mph 1018.7mb 59f 57f
8:30 14 17 mph 1018.8mb 59f 57f
8:24 15 18 mph 1018.7mb 59f 57f
8:18 9 13 mph 1018.7mb 59f 58f
8:12 8 14 mph 1018.7mb 59f 58f
8:06 9 11 mph 1018.7mb 59f 58f
8:00 10 15 mph 1018.7mb 59f 57f
7:54 7 9 mph 1018.7mb 59f 57f
7:48 7 9 mph 1018.7mb 59f 57f
7:42 6 9 mph 1018.7mb 59f 56f
7:36 5 8 mph 1018.7mb 59f 56f
7:30 7 11 mph 1018.7mb 60f 56f
7:24 6 7 mph 1018.7mb 59f 56f
7:18 7 9 mph 1018.7mb 60f 56f
7:12 7 9 mph 1018.7mb 60f 56f
7:06 6 8 mph 1018.7mb 59f 55f
7:00 7 11 mph 1018.7mb 60f 55f
6:54 7 9 mph 1018.7mb 59f 55f
6:48 7 10 mph 1018.7mb 59f 55f
6:42 9 13 mph 1018.7mb 59f 55f
6:36 7 10 mph 1018.6mb 59f 55f
6:30 7 13 mph 1018.5mb 59f 55f
6:24 6 9 mph 1018.5mb 59f 55f
6:18 5 8 mph 1018.5mb 59f 55f
6:12 6 9 mph 1018.4mb 59f 55f
6:06 9 14 mph 1018.3mb 59f 54f
6:00 7 11 mph 1018.4mb 59f 54f
5:54 7 9 mph 1018.3mb 59f 55f
5:48 7 11 mph 1018.1mb 59f 55f
5:42 9 11 mph 1018.1mb 59f 55f
5:36 7 11 mph 1018.1mb 59f 55f
5:30 8 10 mph 1018mb 59f 55f
5:24 7 10 mph 1018mb 59f 55f
5:18 7 9 mph 1018mb 59f 55f
5:12 6 9 mph 1018mb 59f 55f
5:06 6 8 mph 1018mb 59f 55f
5:00 8 9 mph 1018mb 59f 55f
4:54 8 11 mph 1017.9mb 59f 55f
4:48 7 9 mph 1017.9mb 59f 55f
4:42 7 11 mph 1017.9mb 59f 56f
4:36 8 14 mph 1017.9mb 59f 56f
4:30 9 11 mph 1017.9mb 59f 56f
4:24 6 8 mph 1017.9mb 59f 56f
4:18 5 7 mph 1017.9mb 59f 56f
4:12 5 9 mph 1017.9mb 59f 56f
4:06 3 7 mph 1017.9mb 59f 55f
4:00 5 6 mph 1017.9mb 59f 56f
3:54 5 7 mph 1017.8mb 59f 55f
3:48 3 6 mph 1017.8mb 59f 55f
3:42 5 6 mph 1017.8mb 59f 55f
3:36 6 8 mph 1017.8mb 59f 56f
3:30 3 5 mph 1017.8mb 59f 55f
3:24 3 6 mph 1017.8mb 59f 54f
3:18 5 6 mph 1017.8mb 59f 56f
3:12 3 7 mph 1017.7mb 59f 57f
3:06 6 8 mph 1017.6mb 59f 57f
3:00 2 5 mph 1017.6mb 59f 57f
2:54  -  0 mph 1017.6mb 59f 57f
2:48  -  2 mph 1017.5mb 58f 58f
2:42 2 2 mph 1017.6mb 58f 58f
2:36 2 5 mph 1017.6mb 58f 58f
2:30 3 5 mph 1017.6mb 58f 58f
2:24 3 5 mph 1017.5mb 58f 57f
2:18 5 6 mph 1017.6mb 58f 57f
2:12 6 6 mph 1017.5mb 58f 57f
2:06 6 7 mph 1017.6mb 58f 57f
2:00 7 8 mph 1017.5mb 58f 57f
1:54 6 7 mph 1017.6mb 57f 57f
1:48 7 8 mph 1017.6mb 58f 57f
1:42 8 10 mph 1017.6mb 57f 58f
1:36 8 13 mph 1017.6mb 57f 58f
1:30 8 11 mph 1017.5mb 57f 58f
1:24 7 9 mph 1017.6mb 56f 57f
1:18 7 10 mph 1017.7mb 56f 58f
1:12 8 10 mph 1017.6mb 56f 58f
1:06 7 14 mph 1017.7mb 56f 58f
1:00 11 14 mph 1017.7mb 56f 58f
12:54 9 10 mph 1017.7mb 56f 58f
12:48 8 10 mph 1017.7mb 56f 58f
12:42 9 13 mph 1017.7mb 56f 58f
12:36 10 14 mph 1017.7mb 56f 58f
12:30 11 14 mph 1017.8mb 56f 58f
12:24 11 14 mph 1017.8mb 56f 58f
12:18 9 14 mph 1017.8mb 56f 58f
12:12 9 14 mph 1017.8mb 55f 58f
12:06 9 11 mph 1017.7mb 55f 58f
12:00 8 14 mph 1017.7mb 55f 58f
Mo 05/22 11:54 13 14 mph 1017.6mb 55f 58f
11:48 9 11 mph 1017.5mb 55f -
11:42 9 9 mph 1017.4mb 55f -
11:36 7 8 mph 1017.4mb 55f -
11:30 6 8 mph 1017.4mb 56f 58f
11:24 5 6 mph 1017.5mb 55f 59f
11:18 5 7 mph 1017.4mb 55f 61f
11:12 6 7 mph 1017.5mb 55f 60f
11:06 5 7 mph 1017.5mb 55f 60f
11:00 5 6 mph 1017.6mb 56f 61f
10:54 6 7 mph 1017.6mb 56f 61f
10:48 7 8 mph 1017.5mb 56f 61f
10:42 8 8 mph 1017.5mb 56f 61f
10:36 5 7 mph 1017.5mb 56f 60f
10:30 7 8 mph 1017.5mb 56f 61f
10:24 1 3 mph 1017.5mb 56f 61f
10:18 3 5 mph 1017.6mb 56f 61f
10:12 2 7 mph 1017.7mb 56f 62f
10:06 3 7 mph 1017.8mb 57f 63f
10:00 6 8 mph 1017.8mb 57f 63f
9:54 5 7 mph 1017.7mb 57f 62f
9:48 7 9 mph 1017.7mb 57f 62f
9:42 8 10 mph 1017.7mb 57f 62f
9:36 9 13 mph 1017.6mb 57f 61f
9:30 10 11 mph 1017.6mb 57f 61f
9:24 8 9 mph 1017.6mb 57f 62f
9:18 9 9 mph 1017.5mb 57f 62f
9:12 6 7 mph 1017.5mb 58f 62f
9:06 3 6 mph 1017.5mb 58f 63f
9:00 3 9 mph 1017.4mb 58f 63f
8:54 8 14 mph 1017.3mb 58f 63f
8:48 11 16 mph 1017.2mb 58f 63f
8:42 15 18 mph 1017mb 59f 64f
8:36 17 20 mph 1017mb 59f 64f
8:30 18 23 mph 1017mb 59f 65f
8:24 21 24 mph 1017.1mb 60f 65f
8:18 22 26 mph 1017.1mb 60f 66f
8:12 22 25 mph 1017.1mb 60f 66f
8:06 23 26 mph 1017.1mb 60f 67f
8:00 22 28 mph 1017.2mb 61f 66f
7:54 24 26 mph 1017.1mb 62f 66f
7:48 23 26 mph 1017.1mb 63f 66f
7:42 24 29 mph 1017.2mb 62f 66f
7:36 25 31 mph 1017.2mb 63f 67f
7:30 26 32 mph 1017.2mb 65f 67f
7:24 28 31 mph 1017.2mb 67f 67f
7:18 26 32 mph 1017.2mb 66f 68f
7:12 24 29 mph 1017.2mb 67f 68f
7:06 24 29 mph 1017.2mb 67f 69f
7:00 23 29 mph 1017.2mb 68f 69f
6:54 22 28 mph 1017.2mb 68f 70f
6:48 22 28 mph 1017.2mb 68f 70f
6:42 25 29 mph 1017.2mb 68f 70f
6:36 25 31 mph 1017.2mb 68f 70f
6:30 25 33 mph 1017.2mb 68f 70f
6:24 28 31 mph 1017.1mb 68f 70f
6:18 26 31 mph 1017.2mb 68f 70f
6:12 26 30 mph 1017.3mb 68f 71f
6:06 24 29 mph 1017.2mb 68f 71f
6:00 23 29 mph 1017.3mb 68f -
5:54 21 28 mph 1017.4mb 68f 71f
5:48 24 29 mph 1017.4mb 68f 71f
5:42 24 28 mph 1017.4mb 68f 71f
5:36 24 31 mph 1017.5mb 68f 71f
5:30 26 29 mph 1017.5mb 68f 72f
5:24 23 26 mph 1017.6mb 68f 72f
5:18 22 28 mph 1017.7mb 68f 72f
5:12 22 26 mph 1017.7mb 68f 73f
5:06 22 25 mph 1017.8mb 68f 73f
5:00 22 26 mph 1017.8mb 67f 73f
4:54 21 25 mph 1017.9mb 67f 74f
4:48 18 22 mph - - -
4:42 15 18 mph 1017.9mb 66f 75f
4:36 18 22 mph 1018mb 66f 75f
4:30 18 21 mph 1018mb 66f 74f
4:24 14 20 mph 1018mb 66f 75f
4:18 17 18 mph 1018mb 66f 74f
4:12 18 21 mph 1017.9mb 66f 75f
4:06 16 21 mph 1018mb 67f 75f
4:00 16 22 mph 1018mb 66f 75f
3:54 18 22 mph 1018mb 66f 74f
3:48 20 22 mph 1018.1mb 66f 75f
3:42 18 22 mph 1018.2mb 66f 75f
3:36 21 24 mph 1018.2mb 66f 75f
3:30 21 24 mph 1018.3mb 66f 75f
3:24 21 24 mph 1018.4mb 67f 75f
3:18 23 25 mph 1018.5mb 66f 75f
3:12 22 24 mph 1018.5mb 65f 76f
3:06 17 21 mph 1018.5mb 64f 76f
3:00 17 21 mph 1018.5mb 64f 76f
2:54 16 21 mph 1018.5mb 65f 77f
2:48 18 20 mph 1018.5mb 64f 78f
2:42 14 16 mph 1018.5mb 64f 78f
2:36 15 18 mph 1018.5mb 63f 78f
2:30 16 20 mph 1018.5mb 62f 78f
2:24 15 22 mph 1018.5mb 62f 78f
2:18 17 21 mph 1018.4mb 61f 77f
2:12 8 10 mph 1018.5mb 62f 79f
2:06 9 10 mph 1018.5mb 61f 78f
2:00 6 7 mph 1018.5mb 61f 78f
1:54 5 8 mph 1018.6mb 61f 78f
1:48 6 8 mph 1018.6mb 60f 78f
1:42 5 6 mph 1018.7mb 60f 77f
1:36 2 6 mph 1018.8mb 60f 78f
1:30 2 7 mph 1018.8mb 59f 76f
1:24 6 8 mph 1018.9mb 59f 77f
1:18 8 9 mph 1018.9mb 59f 78f
1:12 7 8 mph 1018.9mb 59f 77f
1:06 8 10 mph 1018.9mb 59f 78f
1:00 8 14 mph 1018.9mb 58f 78f
12:54 8 10 mph 1019mb 59f 78f
12:48 7 8 mph 1019mb 58f 75f
12:42 7 10 mph 1019mb 58f 74f
12:36 10 13 mph 1019mb 58f 77f
12:30 11 13 mph 1019mb 58f 76f
12:24 9 10 mph 1019.1mb 58f 75f
12:18 9 10 mph 1019.2mb 58f 75f
12:12 8 9 mph 1019.3mb 58f 75f
12:06 9 13 mph 1019.4mb 57f 74f
12:00 10 11 mph 1019.4mb 57f 75f
11:54 10 11 mph 1019.5mb 57f 75f
11:48 10 11 mph 1019.6mb 57f 75f
11:42 13 15 mph 1019.7mb 56f 73f
11:36 11 14 mph 1019.7mb 57f 74f
11:30 14 15 mph 1019.8mb 57f 75f
11:24 13 14 mph 1019.9mb 57f 74f
11:18 11 14 mph 1019.9mb 57f 73f
11:12 9 15 mph 1020mb 57f 70f
11:06 11 17 mph 1020mb 57f 73f
11:00 10 11 mph 1020.1mb 57f 72f
10:54 9 10 mph 1020.2mb 57f 71f
10:48 8 13 mph 1020.3mb 57f 72f
10:42 10 14 mph 1020.3mb 57f 71f
10:36 13 15 mph 1020.4mb 57f 72f
10:30 6 8 mph 1020.4mb 57f 71f
10:24 7 8 mph 1020.6mb 57f 70f
10:18 6 10 mph 1020.6mb 58f 70f
10:12 9 13 mph 1020.6mb 58f 70f
10:06 8 10 mph 1020.6mb 58f 69f
10:00 6 9 mph 1020.7mb 58f 69f
9:54 6 8 mph 1020.7mb 58f 69f
9:48 7 8 mph 1020.8mb 58f 68f
9:42 7 9 mph 1020.7mb 58f 68f
9:36 7 8 mph 1020.7mb 58f 68f
9:30 7 8 mph 1020.8mb 58f 69f
9:24 2 3 mph 1020.8mb 58f 69f
9:18 2 3 mph 1020.7mb 58f 70f
9:12  -  1 mph 1020.7mb 58f 69f
9:06 1 1 mph 1020.7mb 58f 68f
9:00  -  1 mph 1020.7mb 58f 70f
8:54  -  1 mph 1020.7mb 58f 69f
8:48 1 1 mph 1020.7mb 58f 68f
8:42 1 2 mph 1020.7mb 58f 68f
8:36 2 3 mph 1020.7mb 59f 67f
8:30 2 2 mph 1020.6mb 59f 66f
8:24 2 3 mph 1020.6mb 59f 66f
8:18 2 3 mph 1020.5mb 59f 65f
8:12 2 3 mph 1020.5mb 59f 65f
8:06 3 5 mph 1020.5mb 59f 64f
8:00 5 6 mph 1020.4mb 59f 63f
7:54 6 7 mph 1020.5mb 59f 63f
7:48 7 8 mph 1020.5mb 59f 62f
7:42 7 7 mph 1020.5mb 59f 62f
7:36 7 7 mph 1020.5mb 59f 62f
7:30 7 7 mph 1020.5mb 60f 61f
7:24 7 7 mph 1020.5mb 60f 61f
7:18 7 9 mph 1020.5mb 60f 61f
7:12 8 10 mph 1020.4mb 59f 60f
7:06 10 10 mph 1020.5mb 60f 60f
7:00 9 10 mph 1020.5mb 60f 60f
6:54 8 9 mph 1020.5mb 60f 60f
6:48 8 9 mph 1020.5mb 60f 60f
6:30 7 7 mph 1020.4mb 59f 60f
6:24 6 7 mph 1020.4mb 59f 59f
6:18 5 6 mph 1020.4mb 59f 59f
6:12 6 7 mph 1020.4mb 60f 59f
6:06 7 8 mph 1020.3mb 60f 59f
6:00 7 8 mph 1020.3mb 60f 57f
5:54 6 7 mph 1020.3mb 60f 58f
5:48 6 7 mph 1020.4mb 60f 58f
5:42 6 6 mph 1020.4mb 60f 57f
5:36 6 7 mph 1020.3mb 60f 57f
5:30 6 7 mph 1020.3mb 60f 58f
5:24 7 8 mph 1020.4mb 60f 58f
5:18 6 8 mph 1020.4mb 60f 56f
5:12 3 6 mph 1020.4mb 60f 55f
5:06 5 7 mph 1020.5mb 60f 55f
5:00 5 6 mph 1020.5mb 60f 56f
4:54 5 6 mph 1020.5mb 60f 57f
4:48 5 6 mph 1020.5mb 60f 57f
4:42 3 6 mph 1020.5mb 60f 58f
4:36 5 5 mph 1020.5mb 60f 58f
4:30 5 5 mph 1020.6mb 60f 57f
4:24 5 6 mph 1020.6mb 60f 57f
4:18 5 7 mph 1020.6mb 60f 57f
4:12 7 8 mph 1020.6mb 60f 57f
4:06 7 8 mph 1020.7mb 60f 56f
4:00 7 8 mph 1020.8mb 60f 55f
3:54 5 7 mph 1020.9mb 60f 56f
3:48 7 7 mph 1021mb 60f 55f
3:42 5 7 mph 1021mb 60f 55f
3:36 7 8 mph 1020.9mb 60f 55f
3:30 6 6 mph 1021mb 60f 56f
3:24 3 5 mph 1021.1mb 60f 56f
3:18 5 6 mph 1021.1mb 60f 57f
3:12 5 6 mph 1021.1mb 60f 57f
3:06 3 6 mph 1021.1mb 60f 58f
3:00 3 6 mph 1021.1mb 60f 58f
2:54 6 7 mph 1021mb 60f 58f
2:48 7 8 mph 1021mb 60f 58f
2:42 7 9 mph 1021.1mb 60f 58f
2:36 8 10 mph 1021.1mb 60f 58f
2:30 9 10 mph 1021.1mb 60f 58f
2:24 8 10 mph 1021.1mb 60f 58f
2:18 10 11 mph 1021.1mb 60f 57f
2:12 10 11 mph 1021.1mb 60f 57f
2:06 11 13 mph 1021.1mb 60f 57f
2:00 11 15 mph 1021.1mb 60f 57f
1:54 13 14 mph 1021.1mb 60f 56f
1:48 14 15 mph 1021.1mb 60f 56f
1:42 14 15 mph 1021.1mb 60f 56f
1:36 13 14 mph 1021.1mb 60f 56f
1:30 11 13 mph 1021.1mb 60f 56f
1:24 11 13 mph 1021.2mb 60f 56f
1:18 10 11 mph 1021.2mb 60f 56f
1:12 8 10 mph 1021.2mb 60f 57f
1:06 9 13 mph 1021.3mb 59f 56f
1:00 11 14 mph 1021.3mb 58f 56f
12:54 11 11 mph 1021.3mb 59f 56f
12:48 10 11 mph 1021.4mb 59f 56f
12:42 10 11 mph 1021.4mb 58f 56f
12:36 9 10 mph 1021.4mb 59f 56f
12:30 10 11 mph 1021.5mb 58f 56f
12:24 10 11 mph 1021.5mb 57f 56f
12:18 10 13 mph 1021.5mb 57f 56f
12:12 9 10 mph 1021.4mb 56f 56f
12:06 9 10 mph 1021.4mb 56f 56f
12:00 8 9 mph 1021.4mb 56f 56f
So 05/21 11:54 8 9 mph 1021.5mb 56f 56f
11:48 3 6 mph 1021.6mb 56f 56f
11:42 3 9 mph 1021.7mb 56f 56f
11:36 7 9 mph 1021.6mb 56f 57f
11:30 8 9 mph 1021.6mb 56f 57f
11:24 9 9 mph 1021.5mb 56f 57f
11:18 8 9 mph 1021.5mb 56f 58f
11:12 8 8 mph 1021.5mb 56f 58f
11:06 7 8 mph 1021.6mb 56f 58f
11:00 7 8 mph 1021.6mb 56f 58f
10:54 7 8 mph 1021.6mb 56f 58f
10:48 3 6 mph 1021.6mb 56f 58f
10:42 6 7 mph 1021.5mb 56f 58f
10:36 5 6 mph 1021.6mb 56f 59f
10:30 1 3 mph 1021.6mb 56f 59f
10:24 2 3 mph 1021.6mb 56f 59f
10:18 2 3 mph 1021.5mb 56f 59f
10:12 3 6 mph 1021.6mb 56f 59f
10:06 5 6 mph 1021.5mb 56f 59f
10:00 7 10 mph 1021.4mb 56f 59f
9:54 3 7 mph 1021.5mb 56f 58f
9:48 6 7 mph 1021.4mb 56f 58f
9:42 7 8 mph 1021.4mb 57f 58f
9:36 7 9 mph 1021.4mb 57f 58f
9:30 8 10 mph 1021.4mb 57f 58f
9:24 9 13 mph 1021.3mb 57f 59f
9:18 11 13 mph 1021.2mb 58f 59f
9:12 13 14 mph 1021.2mb 58f 60f
9:06 13 14 mph 1021.2mb 58f 60f
9:00 10 11 mph 1021.2mb 58f 60f
8:54 9 9 mph 1021.1mb 58f 61f
8:48 8 9 mph - - -
8:42 6 8 mph 1021.1mb 58f 61f
8:36 7 10 mph 1021mb 58f 61f
8:30 9 10 mph 1020.9mb 58f 61f
8:24 7 8 mph 1020.8mb 58f 62f
8:18 7 9 mph 1020.8mb 58f 62f
8:12 7 9 mph 1020.8mb 58f 62f
8:06 8 10 mph 1020.8mb 58f 62f
8:00 10 13 mph 1020.8mb 58f 62f
7:54 10 13 mph 1020.8mb 59f 62f
7:48 11 14 mph 1020.8mb 59f 62f
7:42 10 15 mph 1020.9mb 60f 62f
7:36 13 14 mph 1020.8mb 59f 62f
7:30 11 14 mph 1020.8mb 60f 62f
7:24 13 15 mph 1020.8mb 60f 63f
7:18 11 15 mph 1020.7mb 61f 64f
7:12 14 17 mph 1020.7mb 62f 64f
7:06 15 17 mph 1020.6mb 63f 65f
7:00 16 18 mph 1020.5mb 64f 65f
6:54 16 21 mph 1020.4mb 66f 65f
6:48 17 21 mph 1020.3mb 66f 65f
6:42 18 21 mph 1020.3mb 66f 65f
6:36 18 21 mph 1020.3mb 66f 65f
6:30 18 21 mph 1020.5mb - -
6:24 18 21 mph 1020.6mb 66f 64f
6:18 18 23 mph 1020.6mb 66f 64f
6:12 20 24 mph 1020.6mb 66f 64f
6:06 22 24 mph 1020.7mb 66f 64f
6:00 21 24 mph 1020.8mb 66f 65f
5:54 23 25 mph 1020.8mb 66f 65f
5:48 20 23 mph 1020.8mb 66f 65f
5:42 21 25 mph 1020.9mb 66f 65f
5:36 22 29 mph 1020.9mb 66f 65f
5:30 25 29 mph 1021mb 66f 66f
5:24 23 26 mph 1021.1mb 66f 67f
5:18 22 24 mph 1021.2mb 66f 67f
5:12 21 24 mph 1021.2mb 66f 68f
5:06 22 25 mph 1021.2mb 66f 68f
5:00 22 25 mph 1021.2mb 65f 68f
4:54 22 24 mph 1021.2mb 65f 69f
4:48 21 24 mph 1021.3mb 65f 69f
4:42 21 23 mph 1021.2mb 65f 69f
4:36 20 23 mph 1021.3mb 65f 69f
4:30 20 23 mph 1021.4mb 64f 70f
4:24 18 21 mph 1021.5mb 64f 69f
4:18 20 23 mph 1021.5mb 65f 70f
4:12 21 24 mph 1021.5mb 65f 70f
4:06 20 23 mph 1021.6mb 65f 70f
4:00 21 23 mph 1021.6mb 65f 70f
3:54 18 22 mph 1021.6mb 65f 71f
3:48 20 22 mph 1021.7mb 64f 71f
3:42 18 22 mph 1021.7mb 64f 71f
3:36 16 18 mph 1021.7mb 64f 71f
3:30 13 18 mph 1021.8mb 64f 71f
3:24 15 21 mph 1021.9mb 64f 71f
3:18 16 20 mph 1021.9mb 64f 71f
3:12 16 18 mph 1022mb 64f 71f
3:06 16 18 mph 1022mb 65f 71f
3:00 15 17 mph 1022.2mb 65f 71f
2:54 15 18 mph 1022.3mb 65f 71f
2:48 14 18 mph 1022.2mb 65f 72f
2:42 16 20 mph 1022.3mb 65f 72f
2:36 15 18 mph 1022.3mb 65f 71f
2:30 15 18 mph 1022.3mb 63f 71f
2:24 14 18 mph 1022.3mb 63f 71f
2:18 14 17 mph 1022.3mb 62f 72f
2:12 8 16 mph 1022.4mb 62f 73f
2:06 13 20 mph 1022.5mb 62f 71f
2:00 6 10 mph 1022.5mb 62f 73f
1:54 6 6 mph 1022.6mb 62f 73f
1:48 1 3 mph 1022.6mb 61f 75f
1:42 3 7 mph 1022.6mb 61f 75f
1:36 3 8 mph 1022.7mb 61f 74f
1:30 7 8 mph 1022.7mb 61f 73f
1:24  -  1 mph 1022.8mb 61f 77f
1:18  -  1 mph 1022.9mb 61f 76f
1:12  -  2 mph 1023mb 60f 75f
1:06  -  2 mph 1023mb 60f 74f
1:00  -  2 mph 1023mb 60f 74f
12:54  -  1 mph 1023.1mb 60f 74f
12:48  -  2 mph 1023.1mb 59f 73f
12:42 2 3 mph 1023.2mb 59f 73f
12:36 1 2 mph 1023.2mb 59f 72f
12:30 2 5 mph 1023.4mb 59f 71f
12:24 1 2 mph 1023.4mb 58f 71f
12:18 2 2 mph 1023.5mb 59f 70f
12:12  -  1 mph 1023.5mb 59f 70f
12:06  -  3 mph 1023.5mb 59f 70f
12:00  -  2 mph 1023.5mb 58f 71f
11:54 1 2 mph 1023.5mb 58f 70f
11:48  -  2 mph 1023.5mb 58f 71f
11:42 1 2 mph 1023.6mb 58f 69f
11:36  -  2 mph 1023.6mb 58f 70f
11:30 1 2 mph 1023.6mb 58f 69f
11:24 1 3 mph 1023.7mb 58f 68f
11:18 2 5 mph 1023.7mb 58f 67f
11:12 3 6 mph 1023.7mb 58f 65f
11:06 3 5 mph 1023.7mb 58f 64f
11:00 3 5 mph 1023.7mb 58f 63f
10:54 3 5 mph 1023.7mb 58f 62f
10:48 3 5 mph 1023.8mb 58f 61f
10:42 3 5 mph 1023.8mb 58f 61f
10:36 3 5 mph 1023.7mb 58f 60f
10:30 3 5 mph 1023.7mb 58f 60f
10:24 3 5 mph 1023.7mb 58f 60f
10:18 3 5 mph 1023.8mb 58f 59f
10:12 3 3 mph 1023.9mb 58f 59f
10:06 3 5 mph 1023.9mb 58f 59f
10:00 5 5 mph 1023.9mb 58f 59f
9:54 5 5 mph 1023.9mb 58f 59f
9:48 2 5 mph 1023.9mb 57f 59f
9:42 3 5 mph 1023.9mb 58f 60f
9:36 3 5 mph 1023.9mb 58f 61f
9:30 2 5 mph 1023.9mb 58f 61f
9:24 5 5 mph 1023.9mb 58f 60f
9:18 2 5 mph 1023.9mb 58f 60f
9:12 3 6 mph 1023.9mb 58f 59f
9:06 5 6 mph 1023.9mb 58f 59f
9:00 3 5 mph 1023.8mb 58f 58f
8:54 2 3 mph 1023.8mb 58f 57f
8:48 1 2 mph 1023.9mb 58f 57f
8:42  -  1 mph 1023.9mb 58f 57f
8:36 1 2 mph 1023.8mb 58f 56f
8:30 2 2 mph 1023.8mb 58f 55f
8:24 2 3 mph 1023.8mb 58f 55f
8:18 2 2 mph 1023.8mb 58f 55f
8:12 1 2 mph 1023.9mb 58f 55f
8:06 2 3 mph 1023.9mb 58f 55f
8:00 1 3 mph 1023.9mb 58f 55f
7:54 2 5 mph 1023.9mb 58f 54f
7:48 3 5 mph 1023.9mb 58f 53f
7:42 3 5 mph 1023.8mb 58f 53f
7:36 6 7 mph 1023.8mb 58f 52f
7:30 5 8 mph 1023.8mb 58f 52f
7:24 7 8 mph 1023.8mb 58f 52f
7:18 7 8 mph 1023.8mb 58f 51f
7:12 7 8 mph 1023.8mb 58f 51f
7:06 7 8 mph 1023.8mb 59f 51f
7:00 7 8 mph 1023.8mb 59f 51f
6:54 7 9 mph 1023.8mb 59f 51f
6:48 7 9 mph 1023.8mb 59f 51f
6:42 8 9 mph 1023.8mb 59f 51f
6:36 6 8 mph 1023.8mb 59f 51f
6:30 8 9 mph 1023.8mb 59f 51f
6:24 9 11 mph 1023.8mb 59f 51f
6:18 9 10 mph 1023.8mb 59f 51f
6:12 8 10 mph 1023.8mb 59f 51f
6:06 7 9 mph 1023.7mb 59f 51f
6:00 6 8 mph 1023.7mb 59f 51f
5:54 6 7 mph 1023.7mb 59f 51f
5:48 6 7 mph 1023.7mb 59f 51f
5:42 6 8 mph 1023.6mb 59f 51f
5:36 3 6 mph 1023.6mb 59f 51f
5:30 5 6 mph 1023.6mb 59f 51f
5:24 5 6 mph 1023.6mb 59f 51f
5:18 6 7 mph 1023.6mb 59f 51f
5:12 6 8 mph 1023.5mb 59f 51f
5:06 7 8 mph 1023.5mb 59f 51f
5:00 6 8 mph 1023.6mb 59f 52f
4:54 5 7 mph 1023.5mb 59f 52f
4:48 6 9 mph 1023.5mb 59f 51f
4:42 8 10 mph 1023.5mb 59f 51f
4:36 8 11 mph 1023.5mb 59f 51f
4:30 10 11 mph 1023.5mb 59f 52f
4:24 7 9 mph 1023.6mb 59f 52f
4:18 7 9 mph 1023.6mb 59f 52f
4:12 7 9 mph 1023.6mb 59f 52f
4:06 7 9 mph 1023.6mb 59f 52f
4:00 5 7 mph 1023.6mb 59f 52f
3:54 6 8 mph 1023.7mb 59f 52f
3:48 6 7 mph 1023.8mb 59f 52f
3:42 6 8 mph 1023.9mb 59f 52f
3:36 7 9 mph 1024mb 59f 52f
3:30 7 8 mph 1024mb 59f 52f
3:24 7 9 mph 1024mb 59f 53f
3:18 6 7 mph 1024.1mb 59f 53f
3:12 6 9 mph 1024.1mb 59f 52f
3:06 6 8 mph 1024.1mb 59f 53f
3:00 7 8 mph 1024.2mb 59f 52f
2:54 6 8 mph 1024.1mb 59f 53f
2:48 6 8 mph 1024.2mb 59f 52f
2:42 7 9 mph 1024.1mb 59f 53f
2:36 5 8 mph 1024.1mb 59f 53f
2:30 7 8 mph 1024mb 59f 53f
2:24 6 8 mph 1024mb 59f 53f
2:18 5 6 mph 1024mb 59f 53f
2:12 5 7 mph 1024mb 59f 53f
2:06 6 8 mph 1024mb 59f 53f
2:00 6 7 mph 1024mb 59f 53f
1:54 3 6 mph 1024mb 59f 53f
1:48 6 7 mph 1024mb 59f 53f
1:42 7 8 mph 1024mb 59f 53f
1:36 5 6 mph 1024mb 59f 53f
1:30 6 7 mph 1024mb 59f 53f
1:24 6 7 mph 1024mb 59f 53f
1:18 5 6 mph 1023.9mb 59f 54f